Time;durP1;ratioP1;P1;durP2;ratioP2;P2;SDS_P1;SDS_P2;PMS_P1;PMS_P2;Temp;Humidity;BMP_temperature;BMP_pressure;BME280_temperature;BME280_humidity;BME280_pressure;Samples;Min_cycle;Max_cycle;Signal;HPM_P1;HPM_P2
2023/01/24 00:01:28;;;;;;;7.03;1.40;;;;;;;11.50;57.62;102593.16;5007421;28;20457;-74
2023/01/24 00:03:57;;;;;;;5.57;1.45;;;;;;;11.49;57.96;102593.06;5006979;28;20050;-75
2023/01/24 00:06:25;;;;;;;4.90;1.48;;;;;;;11.46;58.23;102590.31;5008910;28;20058;-75
2023/01/24 00:08:56;;;;;;;5.47;1.30;;;;;;;11.41;58.39;102582.28;5006934;28;20117;-74
2023/01/24 00:11:25;;;;;;;4.82;1.20;;;;;;;11.36;58.71;102575.03;4996971;28;20047;-75
2023/01/24 00:13:53;;;;;;;4.15;1.63;;;;;;;11.32;58.51;102580.06;5008503;28;20053;-75
2023/01/24 00:16:23;;;;;;;8.85;1.80;;;;;;;11.25;58.57;102583.13;5013018;28;20057;-75
2023/01/24 00:18:51;;;;;;;5.97;1.63;;;;;;;11.20;59.03;102587.16;5004245;28;20047;-73
2023/01/24 00:21:22;;;;;;;7.95;1.60;;;;;;;11.17;58.86;102592.16;5010910;28;20065;-73
2023/01/24 00:23:52;;;;;;;5.55;1.67;;;;;;;11.13;59.68;102587.59;5012334;28;20046;-73
2023/01/24 00:26:23;;;;;;;4.57;1.85;;;;;;;11.08;60.07;102597.69;5011572;28;20057;-72
2023/01/24 00:28:52;;;;;;;4.90;1.70;;;;;;;11.02;59.29;102596.47;5012271;28;20046;-72
2023/01/24 00:31:20;;;;;;;5.10;1.40;;;;;;;10.87;59.99;102587.00;5012337;28;20058;-73
2023/01/24 00:33:49;;;;;;;4.78;1.70;;;;;;;10.78;61.64;102602.00;5012242;28;20077;-73
2023/01/24 00:36:18;;;;;;;5.82;1.35;;;;;;;10.65;59.84;102591.72;5009593;28;20108;-72
2023/01/24 00:38:47;;;;;;;3.78;1.25;;;;;;;10.47;61.31;102594.16;5002133;28;20051;-73
2023/01/24 00:41:15;;;;;;;6.53;1.00;;;;;;;10.38;62.38;102593.63;5008735;28;20058;-72
2023/01/24 00:43:45;;;;;;;3.60;1.00;;;;;;;10.35;62.54;102598.59;5011894;28;20093;-72
2023/01/24 00:46:21;;;;;;;3.45;0.85;;;;;;;10.25;62.96;102591.94;5010450;28;20460;-71
2023/01/24 00:48:49;;;;;;;2.08;1.02;;;;;;;10.29;64.36;102598.25;5001488;28;20046;-71
2023/01/24 00:51:18;;;;;;;3.35;0.60;;;;;;;10.23;63.96;102594.41;5007694;28;20037;-72
2023/01/24 00:53:46;;;;;;;3.53;1.17;;;;;;;10.17;64.03;102600.91;5003885;28;20046;-75
2023/01/24 00:56:15;;;;;;;3.17;0.90;;;;;;;10.09;63.32;102595.28;5009402;28;20049;-73
2023/01/24 00:58:45;;;;;;;2.65;1.10;;;;;;;10.03;63.04;102595.81;5018946;28;20061;-72
2023/01/24 01:01:13;;;;;;;1.13;0.80;;;;;;;9.98;64.53;102588.56;5009194;28;20128;-71
2023/01/24 01:03:42;;;;;;;2.00;0.70;;;;;;;9.89;63.96;102590.59;5003647;28;20042;-72
2023/01/24 01:06:15;;;;;;;3.20;0.93;;;;;;;9.77;64.57;102583.84;5009431;28;20696;-72
2023/01/24 01:08:43;;;;;;;;;;;;;;;9.70;65.08;102592.03;5003487;28;20050;-73
2023/01/24 01:11:11;;;;;;;4.70;1.20;;;;;;;9.65;64.94;102591.75;5012769;28;19921;-72
2023/01/24 01:13:40;;;;;;;3.20;0.93;;;;;;;9.60;65.50;102587.09;5011344;28;20053;-74
2023/01/24 01:16:13;;;;;;;3.13;0.82;;;;;;;9.55;65.63;102593.66;5009995;28;20050;-72
2023/01/24 01:18:42;;;;;;;5.05;1.17;;;;;;;9.40;65.56;102578.97;5002431;28;20053;-75
2023/01/24 01:21:14;;;;;;;6.28;1.98;;;;;;;9.29;66.96;102594.59;5008143;28;20054;-72
2023/01/24 01:23:42;;;;;;;2.10;1.35;;;;;;;9.17;68.32;102594.69;5010179;28;20049;-74
2023/01/24 01:26:17;;;;;;;1.98;0.55;;;;;;;9.07;71.62;102587.13;5007950;28;20054;-71
2023/01/24 01:28:45;;;;;;;1.95;0.70;;;;;;;9.00;73.21;102591.00;4995203;28;20061;-71
2023/01/24 01:31:16;;;;;;;3.30;0.90;;;;;;;8.93;73.80;102589.75;5000276;28;20046;-74
2023/01/24 01:33:45;;;;;;;1.95;1.13;;;;;;;8.86;71.31;102586.63;5010441;28;20049;-73
2023/01/24 01:36:14;;;;;;;2.90;0.93;;;;;;;8.84;71.05;102593.38;4998312;28;20053;-73
2023/01/24 01:38:42;;;;;;;4.45;1.52;;;;;;;8.79;70.63;102600.81;5009818;28;20053;-73
2023/01/24 01:41:12;;;;;;;5.85;1.00;;;;;;;8.75;70.22;102598.81;4996401;28;20050;-73
2023/01/24 01:44:37;;;;;;;5.60;1.27;;;;;;;8.72;71.87;102606.38;5015162;28;20057;-74
2023/01/24 01:46:34;;;;;;;4.50;1.20;;;;;;;8.68;72.40;102594.03;5012151;28;20052;-71
2023/01/24 01:49:06;;;;;;;3.67;1.17;;;;;;;8.62;71.36;102606.56;4997170;28;20042;-73
2023/01/24 01:51:45;;;;;;;4.45;0.82;;;;;;;8.54;72.31;102612.09;5008900;28;20046;-72
2023/01/24 01:54:19;;;;;;;2.47;1.20;;;;;;;8.45;72.71;102614.03;5003108;28;20112;-72
2023/01/24 01:56:51;;;;;;;2.72;1.08;;;;;;;8.32;73.56;102606.25;5008942;28;20069;-72
2023/01/24 01:59:24;;;;;;;5.03;1.10;;;;;;;8.25;74.83;102604.94;5004150;28;20108;-72
2023/01/24 02:01:55;;;;;;;5.82;2.25;;;;;;;8.21;74.31;102607.19;5003836;28;20295;-71
2023/01/24 02:04:28;;;;;;;2.58;1.17;;;;;;;8.16;73.74;102612.91;5009816;28;20447;-71
2023/01/24 02:07:01;;;;;;;3.45;1.13;;;;;;;8.10;73.81;102619.31;5011160;28;20500;-71
2023/01/24 02:09:34;;;;;;;9.07;1.67;;;;;;;8.06;74.18;102618.22;5010610;28;20120;-71
2023/01/24 02:12:04;;;;;;;;;;;;;;;8.02;75.49;102623.03;5007640;28;20597;-72
2023/01/24 02:17:23;;;;;;;5.32;1.50;;;;;;;7.92;75.41;102621.50;5001744;28;20415;-73
2023/01/24 02:20:12;;;;;;;5.30;1.48;;;;;;;7.88;76.01;102616.94;5006790;28;20055;-75
2023/01/24 02:22:53;;;;;;;8.30;1.75;;;;;;;7.83;76.38;102618.28;5009735;28;20046;-74
2023/01/24 02:25:28;;;;;;;10.85;2.25;;;;;;;7.80;76.80;102624.13;5000007;28;20077;-75
2023/01/24 02:27:58;;;;;;;3.35;1.63;;;;;;;7.76;76.86;102622.13;5008691;28;20623;-72
2023/01/24 02:30:27;;;;;;;4.00;1.63;;;;;;;7.74;76.88;102615.94;5008577;28;20042;-72
2023/01/24 02:32:56;;;;;;;6.72;1.50;;;;;;;7.70;76.22;102614.88;5001895;28;20058;-72
2023/01/24 02:35:27;;;;;;;6.95;1.80;;;;;;;7.69;77.09;102622.47;5008570;28;20054;-72
2023/01/24 02:37:59;;;;;;;3.40;1.40;;;;;;;7.66;76.16;102627.41;5004250;28;20054;-73
2023/01/24 02:40:30;;;;;;;5.53;1.75;;;;;;;7.64;76.86;102626.41;5006479;28;20065;-72
2023/01/24 02:43:06;;;;;;;9.80;1.83;;;;;;;7.59;77.29;102626.09;5008057;28;20050;-73
2023/01/24 02:45:36;;;;;;;3.80;1.52;;;;;;;7.58;78.21;102631.13;4995227;28;20072;-74
2023/01/24 02:48:05;;;;;;;4.68;1.60;;;;;;;7.57;78.33;102630.22;5009197;28;20465;-72
2023/01/24 02:53:29;;;;;;;5.00;2.28;;;;;;;7.55;78.53;102636.94;5007316;28;20499;-74
2023/01/24 02:53:31;;;;;;;6.88;2.78;;;;;;;7.53;78.62;102630.78;5004246;28;21075;-73
2023/01/24 02:58:47;;;;;;;8.35;3.45;;;;;;;7.54;79.27;102633.47;5003625;28;20069;-75
2023/01/24 03:01:17;;;;;;;15.18;5.70;;;;;;;7.51;79.08;102645.22;5008078;28;20042;-75
2023/01/24 03:03:47;;;;;;;13.50;5.85;;;;;;;7.47;78.85;102640.66;5012709;28;20049;-75
2023/01/24 03:06:17;;;;;;;14.32;6.55;;;;;;;7.43;79.68;102643.81;5007849;28;20470;-74
2023/01/24 03:08:46;;;;;;;14.20;6.70;;;;;;;7.42;80.34;102642.91;5010866;28;20061;-74
2023/01/24 03:11:15;;;;;;;19.35;6.47;;;;;;;7.40;80.62;102640.97;5007062;28;20049;-74
2023/01/24 03:35:58;;;;;;;9.10;4.53;;;;;;;7.11;82.80;102655.22;5012142;28;20065;-73
2023/01/24 03:41:11;;;;;;;11.30;3.90;;;;;;;7.03;86.32;102669.19;5013617;28;20052;-74
2023/01/24 03:43:40;;;;;;;8.07;4.38;;;;;;;6.99;86.98;102664.59;5019812;28;20412;-73
2023/01/24 03:46:09;;;;;;;7.18;3.97;;;;;;;6.96;88.52;102661.78;5009555;28;20064;-74
2023/01/24 03:48:39;;;;;;;6.68;3.80;;;;;;;6.96;87.79;102667.81;5006445;28;20563;-73
2023/01/24 03:53:52;;;;;;;7.22;3.10;;;;;;;6.97;86.63;102669.63;5010376;28;20056;-74
2023/01/24 03:56:21;;;;;;;9.13;3.17;;;;;;;6.91;86.38;102664.00;5010775;28;20057;-73
2023/01/24 03:58:53;;;;;;;7.90;3.50;;;;;;;6.98;85.47;102680.81;5010962;28;20052;-72
2023/01/24 04:01:22;;;;;;;8.60;2.85;;;;;;;6.95;86.18;102675.44;5006470;28;20073;-74
2023/01/24 04:03:52;;;;;;;7.25;3.08;;;;;;;7.00;86.57;102689.56;5010414;28;20132;-74
2023/01/24 04:06:21;;;;;;;6.28;2.67;;;;;;;6.98;87.06;102693.69;5015969;28;20085;-74
2023/01/24 04:08:50;;;;;;;10.48;3.13;;;;;;;6.97;86.85;102699.63;5012522;28;20045;-72
2023/01/24 04:11:18;;;;;;;6.15;2.90;;;;;;;6.95;86.80;102693.47;5010280;28;20058;-73
2023/01/24 04:13:47;;;;;;;4.32;2.53;;;;;;;6.95;87.65;102702.06;5010982;28;20049;-72
2023/01/24 04:16:16;;;;;;;4.00;2.15;;;;;;;6.95;87.94;102701.19;5010978;28;20096;-72
2023/01/24 04:18:46;;;;;;;5.35;2.90;;;;;;;6.89;87.58;102681.00;5012402;28;20559;-70
2023/01/24 04:21:16;;;;;;;8.38;3.05;;;;;;;6.90;88.98;102690.53;5009786;28;20056;-72
2023/01/24 04:23:45;;;;;;;10.07;2.72;;;;;;;6.92;88.18;102707.00;4998457;28;20061;-71
2023/01/24 04:26:13;;;;;;;6.55;2.88;;;;;;;6.95;88.72;102708.91;5010792;28;20057;-71
2023/01/24 04:28:42;;;;;;;7.70;3.03;;;;;;;6.97;88.41;102699.63;5012985;28;20054;-73
2023/01/24 04:31:10;;;;;;;5.93;2.58;;;;;;;7.01;86.97;102704.19;5002750;28;20518;-72
2023/01/24 04:33:39;;;;;;;12.55;3.63;;;;;;;7.02;86.48;102693.13;5003838;28;20658;-72
2023/01/24 04:36:12;;;;;;;8.55;2.50;;;;;;;6.97;88.57;102686.75;5009344;28;20487;-72
2023/01/24 04:38:43;;;;;;;7.55;3.20;;;;;;;6.87;91.23;102685.16;5006277;28;20132;-72
2023/01/24 04:41:13;;;;;;;6.18;3.25;;;;;;;6.78;92.07;102682.81;4998642;28;20055;-73
2023/01/24 04:43:42;;;;;;;5.35;2.70;;;;;;;6.74;93.75;102690.16;5002930;28;20042;-70
2023/01/24 04:46:11;;;;;;;7.53;2.45;;;;;;;6.70;95.33;102695.06;5011394;28;20182;-72
2023/01/24 04:48:40;;;;;;;5.68;2.80;;;;;;;6.69;95.57;102698.44;5010714;28;20536;-72
2023/01/24 04:51:09;;;;;;;7.03;2.67;;;;;;;6.71;95.31;102698.53;5011793;28;20046;-73
2023/01/24 04:53:42;;;;;;;5.50;2.80;;;;;;;6.74;94.62;102698.78;5011307;28;20088;-72
2023/01/24 04:56:12;;;;;;;10.55;3.53;;;;;;;6.76;94.80;102702.38;5011991;28;20056;-73
2023/01/24 04:58:40;;;;;;;10.07;4.13;;;;;;;6.80;93.81;102700.91;5005032;28;20480;-72
2023/01/24 05:01:09;;;;;;;10.82;4.00;;;;;;;6.84;92.47;102703.81;5004902;28;20053;-73
2023/01/24 05:03:37;;;;;;;10.48;3.88;;;;;;;6.85;92.12;102689.28;5011376;28;20508;-71
2023/01/24 05:06:06;;;;;;;5.95;3.22;;;;;;;6.83;91.76;102696.91;5008538;28;20050;-73
2023/01/24 05:08:35;;;;;;;9.20;3.92;;;;;;;6.84;92.89;102703.81;5012173;28;20053;-74
2023/01/24 05:11:05;;;;;;;6.82;3.15;;;;;;;6.86;92.27;102712.56;5011210;28;20404;-78
2023/01/24 05:13:34;;;;;;;7.35;3.10;;;;;;;6.89;93.13;102709.31;5010860;28;20054;-74
2023/01/24 05:16:04;;;;;;;7.13;2.95;;;;;;;6.92;92.26;102713.03;5001993;28;20060;-73
2023/01/24 05:18:32;;;;;;;13.75;4.10;;;;;;;6.93;91.92;102713.94;5002737;28;20108;-74
2023/01/24 05:21:07;;;;;;;9.35;4.20;;;;;;;6.93;91.24;102708.78;5010447;28;20419;-74
2023/01/24 05:23:36;;;;;;;8.13;3.72;;;;;;;6.94;92.05;102708.00;5010664;28;20516;-74
2023/01/24 05:26:07;;;;;;;13.75;4.55;;;;;;;6.91;91.79;102706.06;5002960;28;20484;-75
2023/01/24 05:28:35;;;;;;;12.27;4.72;;;;;;;6.92;92.08;102702.75;5011404;28;20058;-74
2023/01/24 05:31:07;;;;;;;8.95;3.58;;;;;;;6.87;92.30;102701.50;5000262;28;20050;-75
2023/01/24 05:33:36;;;;;;;9.60;4.35;;;;;;;6.86;92.16;102704.84;5010359;28;20049;-75
2023/01/24 05:36:06;;;;;;;9.55;4.63;;;;;;;6.87;92.77;102716.94;5010268;28;20061;-74
2023/01/24 05:38:35;;;;;;;13.85;6.22;;;;;;;6.86;93.04;102707.41;5009626;28;20412;-73
2023/01/24 05:41:20;;;;;;;;;;;;;;;;;;;;;
2023/01/24 05:54:34;;;;;;;13.40;5.20;;;;;;;6.83;94.12;102720.06;4928828;29;20048;-74
2023/01/24 06:03:32;;;;;;;;;;;;;;;6.76;96.11;102745.19;5004508;28;20464;-70
2023/01/24 06:06:23;;;;;;;10.40;4.32;;;;;;;6.74;97.10;102746.78;5010478;28;20029;-72
2023/01/24 06:09:13;;;;;;;6.53;2.85;;;;;;;6.70;97.26;102745.63;4996440;28;20555;-74
2023/01/24 06:11:42;;;;;;;9.05;4.13;;;;;;;6.70;95.72;102753.34;5003133;28;20443;-71
2023/01/24 06:14:12;;;;;;;8.60;3.70;;;;;;;6.65;96.73;102762.38;5007175;28;20045;-71
2023/01/24 06:16:41;;;;;;;7.93;3.00;;;;;;;6.64;97.19;102751.22;4998027;28;20108;-71
2023/01/24 06:19:11;;;;;;;9.85;3.10;;;;;;;6.65;97.50;102757.25;4997027;28;20068;-71
2023/01/24 06:21:46;;;;;;;10.02;3.53;;;;;;;6.68;97.53;102765.19;5002754;28;20047;-71
2023/01/24 06:24:20;;;;;;;10.65;4.38;;;;;;;6.72;98.07;102755.25;5005763;28;20062;-72
2023/01/24 06:26:50;;;;;;;8.32;3.85;;;;;;;6.76;97.12;102758.03;5008450;28;20054;-71
2023/01/24 06:29:22;;;;;;;7.28;3.70;;;;;;;6.75;96.26;102754.59;5007697;28;20492;-75
2023/01/24 06:32:04;;;;;;;7.53;3.63;;;;;;;6.71;96.11;102758.63;5001120;28;20701;-77
2023/01/24 06:34:58;;;;;;;7.30;3.47;;;;;;;6.73;96.31;102766.44;5006693;28;20519;-77
2023/01/24 06:37:38;;;;;;;8.00;2.47;;;;;;;6.69;96.99;102761.84;5004823;28;20506;-74
2023/01/24 06:40:12;;;;;;;9.70;3.42;;;;;;;6.65;97.38;102772.69;4994487;28;20416;-73
2023/01/24 06:42:42;;;;;;;7.53;2.85;;;;;;;6.61;97.64;102765.50;5007998;28;20320;-74
2023/01/24 06:45:13;;;;;;;5.72;2.53;;;;;;;6.63;97.12;102774.22;4997533;28;20588;-74
2023/01/24 06:47:42;;;;;;;7.53;3.30;;;;;;;6.67;98.06;102784.88;5009446;28;20053;-76
2023/01/24 06:50:16;;;;;;;7.65;2.88;;;;;;;6.72;98.17;102785.22;5009495;28;20046;-74
2023/01/24 06:52:47;;;;;;;8.05;2.78;;;;;;;6.77;97.51;102791.63;5009704;28;20044;-76
2023/01/24 06:55:16;;;;;;;9.02;2.70;;;;;;;6.78;98.04;102801.16;5010544;28;20127;-75
2023/01/24 06:57:46;;;;;;;8.55;3.38;;;;;;;6.81;96.87;102798.81;5012567;28;20057;-73
2023/01/24 07:00:17;;;;;;;6.13;2.50;;;;;;;6.86;97.18;102796.59;5013077;28;20052;-76
2023/01/24 07:02:46;;;;;;;7.20;2.42;;;;;;;6.88;96.04;102803.66;5010594;28;20068;-74
2023/01/24 07:05:15;;;;;;;5.30;2.17;;;;;;;6.88;96.25;102798.50;5008590;28;20042;-74
2023/01/24 07:07:43;;;;;;;5.18;2.10;;;;;;;6.80;94.38;102802.13;5013473;28;20113;-74
2023/01/24 07:10:12;;;;;;;6.25;2.40;;;;;;;6.76;96.27;102792.41;5008038;28;20058;-77
2023/01/24 07:12:43;;;;;;;6.32;2.42;;;;;;;6.71;97.60;102798.84;5011803;28;20514;-74
2023/01/24 07:15:12;;;;;;;6.13;2.53;;;;;;;6.72;98.76;102806.69;5009288;28;20053;-76
2023/01/24 07:17:43;;;;;;;4.88;2.05;;;;;;;6.76;97.92;102800.13;5012198;28;20209;-74
2023/01/24 07:20:14;;;;;;;5.10;2.10;;;;;;;6.76;97.77;102792.41;5003902;28;20046;-74
2023/01/24 07:22:43;;;;;;;4.45;2.17;;;;;;;6.71;99.36;102776.63;5012779;28;20046;-74
2023/01/24 07:25:16;;;;;;;6.22;1.90;;;;;;;6.72;98.53;102790.38;5005274;28;20075;-74
2023/01/24 07:27:45;;;;;;;5.68;2.58;;;;;;;6.74;99.16;102793.97;5013034;28;20053;-74
2023/01/24 07:30:15;;;;;;;4.82;1.75;;;;;;;6.80;98.18;102788.38;5013779;28;20105;-74
2023/01/24 07:32:45;;;;;;;3.95;2.03;;;;;;;6.82;98.62;102792.88;5005434;28;20050;-74
2023/01/24 07:35:14;;;;;;;3.65;2.08;;;;;;;6.87;97.79;102798.38;5013529;28;20061;-74
2023/01/24 07:37:42;;;;;;;4.80;1.92;;;;;;;6.89;97.22;102783.94;5013569;28;20057;-74
2023/01/24 07:40:12;;;;;;;2.92;1.42;;;;;;;6.85;97.47;102769.03;5005630;28;20050;-76
2023/01/24 07:42:41;;;;;;;5.53;2.33;;;;;;;6.76;99.87;102770.91;4994790;28;20054;-74
2023/01/24 07:45:10;;;;;;;3.10;1.65;;;;;;;6.74;99.93;102787.94;5002194;28;20046;-74
2023/01/24 07:47:38;;;;;;;6.88;1.95;;;;;;;6.77;100.00;102789.06;5012917;28;20045;-75
2023/01/24 07:50:10;;;;;;;2.17;1.45;;;;;;;6.81;99.36;102793.66;5012740;28;20056;-74
2023/01/24 07:52:38;;;;;;;5.40;2.22;;;;;;;6.86;98.67;102794.00;5022206;28;20464;-74
2023/01/24 07:55:08;;;;;;;7.30;1.73;;;;;;;6.88;97.13;102792.47;5011639;28;20046;-74
2023/01/24 07:57:52;;;;;;;4.65;2.13;;;;;;;6.90;97.44;102791.81;5012473;28;20496;-75
2023/01/24 08:00:21;;;;;;;5.53;2.22;;;;;;;6.93;96.43;102789.44;5012559;28;20050;-76
2023/01/24 08:02:51;;;;;;;6.38;2.00;;;;;;;6.96;98.29;102805.91;5009330;28;20046;-76
2023/01/24 08:05:21;;;;;;;5.80;1.98;;;;;;;6.98;98.59;102809.50;5011867;28;20049;-76
2023/01/24 08:07:56;;;;;;;7.00;1.75;;;;;;;6.97;98.58;102810.28;5001454;28;20050;-76
2023/01/24 08:10:26;;;;;;;5.75;2.00;;;;;;;6.96;96.47;102798.19;4994672;28;20052;-77
2023/01/24 08:12:54;;;;;;;5.78;1.90;;;;;;;6.94;96.74;102813.53;4994139;28;20052;-74
2023/01/24 08:15:23;;;;;;;5.13;2.20;;;;;;;6.96;97.06;102813.63;4985463;28;20058;-76
2023/01/24 08:17:51;;;;;;;7.75;2.10;;;;;;;6.97;96.38;102807.72;4989527;28;20050;-76
2023/01/24 08:20:22;;;;;;;4.75;2.38;;;;;;;6.98;96.04;102810.38;4991801;28;20050;-74
2023/01/24 08:22:55;;;;;;;5.97;2.08;;;;;;;6.97;95.82;102808.59;4992251;28;20082;-73
2023/01/24 08:25:24;;;;;;;8.23;2.30;;;;;;;6.97;96.82;102810.28;4988073;28;20086;-74
2023/01/24 08:27:52;;;;;;;3.83;2.22;;;;;;;6.93;96.83;102811.72;4984485;28;20046;-74
2023/01/24 08:30:21;;;;;;;6.88;2.22;;;;;;;6.87;96.57;102814.72;4992495;28;20065;-75
2023/01/24 08:32:50;;;;;;;4.97;2.40;;;;;;;6.89;97.53;102809.69;4981360;28;20750;-74
2023/01/24 08:35:19;;;;;;;8.68;3.17;;;;;;;6.93;97.40;102802.31;4979652;28;20081;-73
2023/01/24 08:37:49;;;;;;;5.75;2.70;;;;;;;6.95;96.65;102791.25;4980047;28;20053;-76
2023/01/24 08:40:18;;;;;;;5.25;2.70;;;;;;;6.88;97.04;102770.19;4985091;28;20527;-77
2023/01/24 08:42:47;;;;;;;6.32;2.42;;;;;;;6.80;98.80;102763.53;4990754;28;20058;-77
2023/01/24 08:45:16;;;;;;;8.82;3.63;;;;;;;6.79;98.09;102766.03;4982280;28;20496;-76
2023/01/24 08:47:44;;;;;;;7.35;2.90;;;;;;;6.75;97.49;102767.44;4990459;28;20049;-75
2023/01/24 08:50:16;;;;;;;6.30;2.55;;;;;;;6.72;97.69;102780.97;4985587;28;20129;-75
2023/01/24 08:52:44;;;;;;;6.97;2.97;;;;;;;6.68;96.42;102784.09;4992491;28;20125;-75
2023/01/24 08:55:15;;;;;;;7.65;2.97;;;;;;;6.64;96.55;102791.44;4982633;28;20129;-75
2023/01/24 08:57:44;;;;;;;9.38;3.05;;;;;;;6.63;95.55;102794.81;4989958;28;20428;-75
2023/01/24 09:00:13;;;;;;;6.95;2.60;;;;;;;6.66;95.67;102800.19;4992262;28;20046;-75
2023/01/24 09:02:42;;;;;;;6.47;2.72;;;;;;;6.67;95.61;102807.13;4992331;28;20046;-76
2023/01/24 09:05:11;;;;;;;11.02;2.85;;;;;;;6.67;95.64;102805.47;4991107;28;20049;-75
2023/01/24 09:07:41;;;;;;;7.38;2.60;;;;;;;6.66;94.45;102802.75;4995613;28;20056;-76
2023/01/24 09:10:11;;;;;;;5.88;3.05;;;;;;;6.61;93.60;102807.53;5002465;28;20092;-73
2023/01/24 09:12:41;;;;;;;5.68;2.40;;;;;;;6.60;94.21;102805.75;5001373;28;20046;-73
2023/01/24 09:15:10;;;;;;;5.28;2.75;;;;;;;6.65;94.77;102809.59;5009762;28;20053;-73
2023/01/24 09:17:40;;;;;;;8.13;2.55;;;;;;;6.69;94.70;102806.47;5008424;28;20185;-75
2023/01/24 09:20:10;;;;;;;7.43;3.40;;;;;;;6.70;94.28;102815.97;5005707;28;20057;-73
2023/01/24 09:22:38;;;;;;;6.95;2.88;;;;;;;6.71;94.12;102815.22;5003682;28;20423;-74
2023/01/24 09:25:08;;;;;;;5.80;2.45;;;;;;;6.73;95.47;102815.31;5008478;28;20050;-74
2023/01/24 09:27:37;;;;;;;8.65;2.95;;;;;;;6.76;94.64;102823.28;5009796;28;20847;-74
2023/01/24 09:30:09;;;;;;;5.80;2.67;;;;;;;6.76;94.54;102817.22;5001059;28;20724;-74
2023/01/24 09:32:38;;;;;;;11.00;3.43;;;;;;;6.76;94.91;102819.78;5008984;28;20056;-73
2023/01/24 09:35:08;;;;;;;11.10;3.67;;;;;;;6.77;94.99;102817.34;5003151;28;20391;-73
2023/01/24 09:37:38;;;;;;;6.15;2.75;;;;;;;6.79;94.10;102828.66;5003129;28;20050;-73
2023/01/24 09:40:08;;;;;;;5.85;2.70;;;;;;;6.69;94.54;102815.88;5009248;28;20042;-74
2023/01/24 09:42:42;;;;;;;7.03;2.85;;;;;;;6.83;93.61;102840.09;5009355;28;20141;-74
2023/01/24 09:45:19;;;;;;;8.30;2.90;;;;;;;6.84;94.12;102836.75;5008503;28;20081;-74
2023/01/24 09:47:52;;;;;;;8.48;2.90;;;;;;;6.76;93.49;102831.00;5020319;28;20499;-74
2023/01/24 09:50:25;;;;;;;11.40;2.92;;;;;;;6.81;94.48;102831.38;5004616;28;20563;-74
2023/01/24 09:52:56;;;;;;;5.78;3.28;;;;;;;6.83;93.98;102828.13;5006665;28;20046;-74
2023/01/24 09:55:29;;;;;;;4.47;2.53;;;;;;;6.83;92.43;102824.66;5000696;28;20057;-74
2023/01/24 09:58:04;;;;;;;8.00;3.40;;;;;;;6.75;92.01;102828.31;5002138;28;20052;-74
2023/01/24 10:00:38;;;;;;;8.90;2.72;;;;;;;6.73;93.54;102835.91;5005784;28;20045;-74
2023/01/24 10:03:17;;;;;;;8.27;2.58;;;;;;;6.69;93.43;102844.19;5010116;28;20637;-74
2023/01/24 10:05:50;;;;;;;7.43;2.72;;;;;;;6.63;94.88;102847.16;5001894;28;20117;-74
2023/01/24 10:08:33;;;;;;;8.07;3.20;;;;;;;6.64;94.20;102853.19;5003234;28;20065;-74
2023/01/24 10:11:17;;;;;;;6.05;2.90;;;;;;;6.64;93.52;102851.53;5005444;28;20046;-76
2023/01/24 10:14:05;;;;;;;5.00;2.60;;;;;;;6.58;92.85;102845.91;5005732;28;20050;-74
2023/01/24 10:17:03;;;;;;;7.22;2.80;;;;;;;6.52;93.64;102841.94;4964696;28;20054;-74
2023/01/24 10:20:03;;;;;;;9.32;2.78;;;;;;;6.52;94.05;102835.09;5014708;28;20049;-74
2023/01/24 10:22:48;;;;;;;9.07;2.92;;;;;;;6.54;94.61;102835.25;4997628;28;20137;-73
2023/01/24 10:25:20;;;;;;;10.27;3.17;;;;;;;6.54;94.53;102842.97;5002259;28;20052;-74
2023/01/24 10:27:53;;;;;;;7.05;3.05;;;;;;;6.53;93.81;102838.56;5006122;28;20046;-74
2023/01/24 10:30:27;;;;;;;10.80;3.10;;;;;;;6.52;94.29;102841.94;5008146;28;20132;-74
2023/01/24 10:33:03;;;;;;;7.32;2.75;;;;;;;6.49;93.36;102852.88;5013162;28;20074;-75
2023/01/24 10:35:37;;;;;;;6.55;2.65;;;;;;;6.43;96.19;102857.53;5008793;28;20151;-74
2023/01/24 10:38:13;;;;;;;5.68;2.58;;;;;;;6.42;96.01;102851.50;5009544;28;20108;-75
2023/01/24 10:40:54;;;;;;;12.43;3.35;;;;;;;6.31;98.12;102862.59;5012810;28;20046;-75
2023/01/24 10:43:26;;;;;;;7.25;2.72;;;;;;;6.22;98.08;102860.16;5011681;28;20049;-74
2023/01/24 10:46:03;;;;;;;;;;;;;;;6.12;98.72;102861.88;5002706;28;20049;-73
2023/01/24 10:48:41;;;;;;;5.88;2.67;;;;;;;6.08;98.74;102858.16;5009557;28;19936;-74
2023/01/24 10:51:16;;;;;;;3.00;2.15;;;;;;;6.10;99.43;102868.56;5012118;28;20038;-74
2023/01/24 10:53:45;;;;;;;8.35;1.90;;;;;;;6.11;99.22;102867.78;5011946;28;20048;-74
2023/01/24 10:56:16;;;;;;;7.03;2.83;;;;;;;6.12;98.55;102869.59;5011481;28;20491;-73
2023/01/24 10:58:56;;;;;;;6.75;2.92;;;;;;;6.12;98.43;102872.16;5004819;28;20492;-73
2023/01/24 11:01:32;;;;;;;9.68;2.75;;;;;;;6.14;98.01;102870.59;5008772;28;20657;-74
2023/01/24 11:04:16;;;;;;;5.57;2.30;;;;;;;6.14;97.11;102868.03;5012543;28;20418;-74
2023/01/24 11:06:48;;;;;;;4.57;2.63;;;;;;;6.12;96.98;102864.47;5005362;28;21091;-74
2023/01/24 11:09:19;;;;;;;6.87;2.13;;;;;;;6.11;96.99;102862.66;5012489;28;20073;-74
2023/01/24 11:11:51;;;;;;;6.07;2.80;;;;;;;6.06;96.86;102860.59;5012678;28;20049;-74
2023/01/24 11:14:24;;;;;;;5.73;2.60;;;;;;;6.02;95.21;102858.53;5003826;28;20050;-74
2023/01/24 11:16:55;;;;;;;7.18;3.00;;;;;;;5.95;95.89;102853.69;5000378;28;20153;-73
2023/01/24 11:19:29;;;;;;;3.63;2.38;;;;;;;5.84;96.92;102846.72;5003318;28;20489;-73
2023/01/24 11:22:00;;;;;;;3.92;2.28;;;;;;;5.73;98.64;102839.84;5003244;28;20130;-73
2023/01/24 11:24:30;;;;;;;6.75;2.58;;;;;;;5.61;98.09;102838.03;5008927;28;20645;-74
2023/01/24 11:27:12;;;;;;;6.10;2.63;;;;;;;5.64;97.67;102853.69;5011668;28;20064;-74
2023/01/24 11:29:40;;;;;;;4.22;2.28;;;;;;;5.61;97.10;102868.88;5010688;28;20514;-74
2023/01/24 11:32:28;;;;;;;7.70;2.97;;;;;;;5.60;97.33;102869.63;5004445;28;20045;-73
2023/01/24 11:35:04;;;;;;;5.32;2.40;;;;;;;5.55;96.63;102865.78;5010970;28;20511;-74
2023/01/24 11:37:53;;;;;;;6.60;2.58;;;;;;;5.51;96.32;102861.16;5011431;28;20050;-75
2023/01/24 11:40:30;;;;;;;5.10;2.42;;;;;;;5.47;96.30;102856.50;5002803;28;20042;-74
2023/01/24 11:43:15;;;;;;;5.95;2.38;;;;;;;5.41;96.01;102853.47;5008162;28;20124;-74
2023/01/24 11:45:57;;;;;;;7.07;2.53;;;;;;;5.37;96.46;102856.53;5001211;28;20058;-74
2023/01/24 11:48:35;;;;;;;3.55;2.33;;;;;;;5.32;95.42;102857.81;5008158;28;20050;-74
2023/01/24 11:51:11;;;;;;;6.03;2.08;;;;;;;5.23;95.29;102858.81;5012892;28;20054;-74
2023/01/24 11:54:02;;;;;;;3.53;2.22;;;;;;;5.19;96.28;102854.19;5011740;28;20536;-74
2023/01/24 11:56:37;;;;;;;2.70;1.80;;;;;;;5.10;97.72;102844.81;4997211;28;20069;-74
2023/01/24 11:59:41;;;;;;;5.28;2.28;;;;;;;5.08;98.93;102847.25;5006912;28;20134;-73
2023/01/24 12:02:30;;;;;;;6.07;1.77;;;;;;;5.05;97.94;102841.88;5006992;28;20050;-74
2023/01/24 12:05:13;;;;;;;6.25;2.22;;;;;;;5.02;97.91;102851.88;5011464;28;20042;-73
2023/01/24 12:07:55;;;;;;;7.97;2.05;;;;;;;5.00;97.77;102851.75;5007612;28;20053;-75
2023/01/24 12:10:30;;;;;;;11.73;2.22;;;;;;;4.97;97.40;102848.00;5009534;28;20050;-74
2023/01/24 12:13:07;;;;;;;3.47;1.92;;;;;;;4.94;95.94;102847.75;5010088;28;20070;-75
2023/01/24 12:15:50;;;;;;;6.53;2.10;;;;;;;4.81;96.12;102835.50;5016071;28;20103;-75
2023/01/24 12:18:43;;;;;;;5.88;2.83;;;;;;;4.84;96.21;102838.38;5011443;28;20052;-74
2023/01/24 12:21:13;;;;;;;7.18;2.58;;;;;;;4.79;96.23;102837.97;5002239;28;20044;-74
2023/01/24 12:23:53;;;;;;;8.88;3.03;;;;;;;4.76;96.27;102832.56;4999449;28;20385;-74
2023/01/24 12:26:25;;;;;;;7.05;2.47;;;;;;;4.69;95.42;102822.53;5005262;28;20266;-76
2023/01/24 12:29:03;;;;;;;6.70;2.60;;;;;;;4.64;96.65;102825.50;4999120;28;20054;-74
2023/01/24 12:31:45;;;;;;;6.25;2.58;;;;;;;4.60;97.86;102832.00;5002527;28;20046;-74
2023/01/24 12:34:35;;;;;;;5.30;2.30;;;;;;;4.56;96.80;102832.53;5009433;28;20408;-74
2023/01/24 12:37:12;;;;;;;5.90;3.30;;;;;;;4.50;97.20;102840.56;5011143;28;20045;-74
2023/01/24 12:39:50;;;;;;;7.65;2.05;;;;;;;4.44;96.59;102844.25;4999992;28;20542;-74
2023/01/24 12:42:26;;;;;;;4.60;1.90;;;;;;;4.38;97.51;102842.97;4995889;28;20054;-74
2023/01/24 12:45:01;;;;;;;9.20;2.45;;;;;;;4.32;97.64;102841.50;4995918;28;20539;-74
2023/01/24 12:47:37;;;;;;;4.45;2.15;;;;;;;4.27;97.81;102843.69;5001322;28;20057;-74
2023/01/24 12:50:19;;;;;;;4.80;2.53;;;;;;;4.23;97.96;102838.16;5004921;28;20133;-75